Marshalls Creek, Pennsylvania
Current Conditions -  °F | °C
As of 11:46 AM on Wednesday 22 Oct 2014 (Local Time) from KMPO Reporting Station
Overcast Overcast  
Wind Chill: 44°   Ceiling: 700
Heat Index: 49°   Visibility: 10mi
Dew Point: 45°   Wind: 12mph
Humidity: 86%   Direction: 10°N
Pressure: 29.97"   Gusts: NA
Location:  41.04°N, 75.13°W
Report Text: KMPO 221546Z AUTO 01010KT 10SM OVC007 09/07 A2997 RMK AO2 CIG 006V011 T00940072 TSNO PNO $
Loading
Personal Weather Stations






























Interactive Weather Map
Tropical Storm Tracking
New forecast layout! Learn more

10-Day Weather Forecast

Advertisements
Track Severe Weather on mobile